Time;durP1;ratioP1;P1;durP2;ratioP2;P2;SDS_P1;SDS_P2;PMS_P1;PMS_P2;Temp;Humidity;BMP_temperature;BMP_pressure;BME280_temperature;BME280_humidity;BME280_pressure;Samples;Min_cycle;Max_cycle;Signal;HPM_P1;HPM_P2
2022/01/21 00:01:39;;;;;;;9.82;3.78;;;0.60;14.10;;;;;;5086674;28;20052;-64
2022/01/21 00:04:09;;;;;;;7.93;3.50;;;0.60;14.30;;;;;;5090138;28;20109;-64
2022/01/21 00:06:38;;;;;;;11.32;3.85;;;0.60;13.70;;;;;;5087564;28;20126;-65
2022/01/21 00:09:08;;;;;;;8.45;3.08;;;0.60;13.30;;;;;;5088733;28;20137;-64
2022/01/21 00:11:36;;;;;;;11.18;4.03;;;0.60;13.70;;;;;;5086381;28;20082;-65
2022/01/21 00:14:06;;;;;;;15.55;3.78;;;0.60;13.80;;;;;;5088760;28;20090;-64
2022/01/21 00:16:38;;;;;;;7.10;3.13;;;0.60;13.30;;;;;;5087307;28;20186;-63
2022/01/21 00:19:09;;;;;;;5.90;3.10;;;0.70;13.40;;;;;;5087190;28;20051;-64
2022/01/21 00:30:11;;;;;;;13.57;3.13;;;0.80;12.30;;;;;;5085433;28;20432;-64
2022/01/21 00:32:39;;;;;;;5.40;2.78;;;0.80;12.20;;;;;;5087091;28;20072;-64
2022/01/21 00:35:08;;;;;;;13.73;3.80;;;0.80;13.00;;;;;;5089325;28;20091;-64
2022/01/21 00:37:36;;;;;;;6.60;2.55;;;0.80;12.50;;;;;;5087638;28;20131;-65
2022/01/21 00:40:10;;;;;;;7.50;3.15;;;0.80;12.60;;;;;;5086240;28;20131;-65
2022/01/21 00:42:53;;;;;;;5.57;2.72;;;0.80;13.00;;;;;;5070353;28;20078;-64
2022/01/21 00:45:24;;;;;;;10.43;3.03;;;0.80;12.30;;;;;;5088286;28;20435;-65
2022/01/21 00:47:52;;;;;;;6.15;2.97;;;0.80;12.30;;;;;;5086643;28;20079;-64
2022/01/21 00:50:20;;;;;;;8.00;2.90;;;0.80;12.20;;;;;;5086313;28;20539;-65
2022/01/21 00:52:48;;;;;;;12.50;3.40;;;0.80;12.10;;;;;;5087827;28;20133;-65
2022/01/21 00:55:17;;;;;;;9.48;3.35;;;0.90;12.60;;;;;;5087487;28;20069;-65
2022/01/21 00:57:45;;;;;;;8.07;3.13;;;0.90;12.40;;;;;;5084424;28;20110;-65
2022/01/21 01:00:14;;;;;;;10.95;3.28;;;0.90;12.20;;;;;;5084266;28;20151;-65
2022/01/21 01:02:43;;;;;;;6.65;3.20;;;0.90;12.40;;;;;;5087850;28;20083;-64
2022/01/21 01:05:13;;;;;;;6.20;3.20;;;0.80;12.60;;;;;;5089299;28;20063;-64
2022/01/21 01:07:41;;;;;;;8.00;3.25;;;0.80;13.10;;;;;;5082408;28;20068;-64
2022/01/21 01:10:15;;;;;;;14.88;3.92;;;0.80;13.20;;;;;;5084362;28;20048;-64
2022/01/21 01:12:58;;;;;;;7.53;3.10;;;0.80;13.40;;;;;;5087231;28;20139;-64
2022/01/21 01:20:57;;;;;;;10.02;3.33;;;0.90;13.50;;;;;;5080674;28;20501;-64
2022/01/21 01:23:36;;;;;;;13.38;3.45;;;0.80;13.40;;;;;;5086550;28;20079;-64
2022/01/21 01:28:52;;;;;;;7.97;3.10;;;0.80;13.40;;;;;;5083894;28;20044;-64
2022/01/21 01:31:20;;;;;;;7.18;2.92;;;0.90;13.50;;;;;;5084537;28;20048;-64
2022/01/21 01:33:48;;;;;;;8.90;3.55;;;0.90;12.90;;;;;;5085188;28;20063;-64
2022/01/21 01:36:16;;;;;;;13.18;4.10;;;0.90;12.50;;;;;;5088514;28;20043;-65
2022/01/21 01:41:31;;;;;;;10.85;3.38;;;0.90;12.40;;;;;;5081490;28;20123;-64
2022/01/21 01:49:36;;;;;;;20.02;4.05;;;1.00;11.90;;;;;;5081909;28;20070;-64
2022/01/21 01:52:07;;;;;;;7.70;2.67;;;1.00;12.60;;;;;;5084424;28;20090;-64
2022/01/21 01:54:37;;;;;;;8.15;3.58;;;1.00;12.70;;;;;;5086945;28;20078;-64
2022/01/21 01:57:06;;;;;;;7.95;3.38;;;0.90;13.10;;;;;;5086713;28;20044;-64
2022/01/21 01:59:37;;;;;;;11.52;3.55;;;0.90;14.20;;;;;;5081105;28;20063;-64
2022/01/21 02:02:06;;;;;;;9.80;2.95;;;0.80;14.80;;;;;;5083544;28;20063;-64
2022/01/21 02:04:34;;;;;;;8.25;3.47;;;0.80;14.80;;;;;;5080534;28;20052;-64
2022/01/21 02:07:03;;;;;;;15.32;3.40;;;0.80;15.40;;;;;;5084124;28;20557;-64
2022/01/21 02:09:31;;;;;;;7.90;3.38;;;0.80;15.40;;;;;;5079396;28;20060;-64
2022/01/21 02:11:59;;;;;;;10.07;3.38;;;0.80;16.50;;;;;;5079513;28;20143;-64
2022/01/21 02:14:31;;;;;;;11.32;3.25;;;0.80;17.00;;;;;;5080243;28;20134;-64
2022/01/21 02:17:18;;;;;;;4.95;2.90;;;0.70;16.20;;;;;;5082428;28;20086;-65
2022/01/21 02:22:37;;;;;;;8.98;3.55;;;0.70;16.90;;;;;;5084958;28;20091;-64
2022/01/21 02:25:15;;;;;;;11.02;3.80;;;0.70;16.90;;;;;;5081858;28;20048;-64
2022/01/21 02:27:45;;;;;;;15.45;4.05;;;0.70;16.00;;;;;;5083406;28;20511;-65
2022/01/21 02:30:18;;;;;;;10.95;3.55;;;0.60;16.60;;;;;;5076653;28;20159;-64
2022/01/21 02:32:48;;;;;;;14.60;3.50;;;0.60;15.90;;;;;;5081040;28;20064;-65
2022/01/21 02:35:18;;;;;;;10.32;3.67;;;0.50;16.00;;;;;;5081796;28;20050;-65
2022/01/21 02:37:49;;;;;;;7.97;3.20;;;0.60;15.70;;;;;;5081399;28;20117;-64
2022/01/21 02:40:18;;;;;;;8.77;3.95;;;0.50;15.90;;;;;;5076385;28;20511;-64
2022/01/21 02:42:46;;;;;;;7.82;3.03;;;0.50;16.00;;;;;;5084243;28;20559;-65
2022/01/21 02:45:15;;;;;;;11.93;3.63;;;0.50;16.00;;;;;;5081159;28;20067;-64
2022/01/21 02:47:44;;;;;;;12.10;3.25;;;0.60;15.60;;;;;;5081956;28;20048;-64
2022/01/21 02:50:15;;;;;;;8.02;2.80;;;0.60;15.80;;;;;;5078935;28;20060;-65
2022/01/21 02:52:55;;;;;;;8.52;3.22;;;0.60;15.70;;;;;;5063647;28;20414;-63
2022/01/21 02:55:25;;;;;;;10.65;3.55;;;0.60;15.40;;;;;;5077873;28;20534;-65
2022/01/21 02:57:53;;;;;;;13.20;3.53;;;0.60;15.00;;;;;;5079911;28;20140;-64
2022/01/21 03:00:21;;;;;;;8.43;3.10;;;0.70;15.00;;;;;;5079752;28;20487;-65
2022/01/21 03:02:50;;;;;;;6.57;2.88;;;0.70;13.50;;;;;;5081183;28;20071;-65
2022/01/21 03:05:19;;;;;;;10.02;3.45;;;0.70;14.10;;;;;;5080526;28;20046;-65
2022/01/21 03:07:48;;;;;;;8.20;3.13;;;0.60;14.70;;;;;;5080422;28;20040;-65
2022/01/21 03:10:17;;;;;;;11.25;3.53;;;0.60;15.20;;;;;;5077260;28;20076;-65
2022/01/21 03:12:46;;;;;;;9.55;3.25;;;0.60;15.30;;;;;;5079967;28;20484;-63
2022/01/21 03:15:14;;;;;;;13.38;3.35;;;0.60;15.80;;;;;;5079071;28;20052;-63
2022/01/21 03:17:42;;;;;;;6.13;2.58;;;0.60;15.40;;;;;;5076459;28;20052;-63
2022/01/21 03:20:11;;;;;;;12.32;3.00;;;0.50;14.90;;;;;;5076248;28;20079;-64
2022/01/21 03:22:40;;;;;;;10.27;3.60;;;0.50;15.20;;;;;;5082007;28;20498;-64
2022/01/21 03:25:09;;;;;;;11.65;3.40;;;0.50;16.00;;;;;;5084180;28;20192;-63
2022/01/21 03:27:37;;;;;;;11.32;3.60;;;0.50;15.90;;;;;;5086272;28;20076;-63
2022/01/21 03:30:10;;;;;;;8.00;3.85;;;0.40;15.20;;;;;;5082923;28;20748;-64
2022/01/21 03:32:39;;;;;;;6.90;3.58;;;0.40;15.70;;;;;;5084184;28;20503;-64
2022/01/21 03:35:08;;;;;;;9.60;3.70;;;0.40;15.50;;;;;;5084592;28;20063;-64
2022/01/21 03:37:36;;;;;;;13.18;3.60;;;0.40;15.50;;;;;;5069704;28;20132;-65
2022/01/21 03:40:07;;;;;;;19.75;4.43;;;0.40;15.60;;;;;;5081498;28;20110;-64
2022/01/21 03:42:35;;;;;;;7.63;3.45;;;0.40;15.50;;;;;;5080612;28;20419;-65
2022/01/21 03:45:04;;;;;;;9.10;2.92;;;0.40;15.20;;;;;;5084178;28;20053;-65
2022/01/21 03:47:33;;;;;;;8.40;3.33;;;0.40;15.30;;;;;;5090103;28;20131;-63
2022/01/21 03:50:19;;;;;;;16.77;3.97;;;0.40;15.10;;;;;;5079366;28;20127;-65
2022/01/21 03:52:47;;;;;;;10.52;4.00;;;0.40;15.20;;;;;;5083248;28;20071;-64
2022/01/21 03:55:15;;;;;;;17.48;3.88;;;0.40;15.40;;;;;;5082931;28;20472;-63
2022/01/21 03:57:44;;;;;;;14.45;4.25;;;0.30;14.90;;;;;;5086239;28;20226;-64
2022/01/21 04:00:15;;;;;;;9.85;3.55;;;0.40;15.30;;;;;;5082815;28;20052;-64
2022/01/21 04:02:45;;;;;;;8.30;3.85;;;0.30;15.20;;;;;;5065911;28;20040;-64
2022/01/21 04:05:13;;;;;;;9.45;4.10;;;0.30;15.70;;;;;;5048556;28;20123;-64
2022/01/21 04:07:41;;;;;;;12.77;3.72;;;0.30;15.10;;;;;;5084125;28;20127;-64
2022/01/21 04:10:10;;;;;;;9.60;3.50;;;0.30;15.20;;;;;;5079291;28;20596;-64
2022/01/21 04:12:38;;;;;;;11.88;4.07;;;0.20;15.20;;;;;;5083068;28;20092;-62
2022/01/21 04:15:07;;;;;;;6.93;3.58;;;0.20;15.60;;;;;;5085567;28;20255;-64
2022/01/21 04:17:36;;;;;;;13.05;4.20;;;0.10;15.70;;;;;;5087962;28;20043;-63
2022/01/21 04:20:08;;;;;;;14.18;3.80;;;0.10;16.00;;;;;;5080122;28;20100;-63
2022/01/21 04:22:37;;;;;;;12.07;4.25;;;0.10;16.30;;;;;;5082873;28;20712;-63
2022/01/21 04:25:06;;;;;;;11.35;4.30;;;0.20;15.30;;;;;;5088004;28;20044;-64
2022/01/21 04:27:34;;;;;;;9.63;4.05;;;0.10;15.20;;;;;;5084661;28;20044;-64
2022/01/21 04:30:03;;;;;;;15.30;4.53;;;0.10;15.80;;;;;;5081613;28;20415;-64
2022/01/21 04:32:31;;;;;;;12.02;4.43;;;0.00;16.40;;;;;;5084402;28;20075;-64
2022/01/21 04:34:59;;;;;;;16.88;4.20;;;0.10;16.50;;;;;;5084499;28;20054;-65
2022/01/21 04:37:29;;;;;;;7.60;4.00;;;0.00;16.50;;;;;;5085004;28;20067;-63
2022/01/21 04:40:03;;;;;;;14.70;4.50;;;0.00;16.90;;;;;;5082000;28;20225;-63
2022/01/21 04:48:02;;;;;;;12.63;4.50;;;-0.10;17.80;;;;;;5083620;28;20481;-64
2022/01/21 04:50:38;;;;;;;9.85;4.10;;;0.00;17.70;;;;;;5082086;28;20056;-65
2022/01/21 04:53:09;;;;;;;10.30;4.07;;;0.00;17.20;;;;;;5086396;28;20404;-64
2022/01/21 04:55:37;;;;;;;12.30;4.40;;;0.00;17.40;;;;;;5084255;28;20120;-64
2022/01/21 04:58:05;;;;;;;10.80;3.67;;;0.00;17.20;;;;;;5085391;28;20459;-63
2022/01/21 05:00:33;;;;;;;12.05;4.30;;;0.00;17.20;;;;;;5081262;28;20127;-64
2022/01/21 05:03:01;;;;;;;10.00;3.80;;;0.10;16.60;;;;;;5085270;28;20493;-63
2022/01/21 05:05:30;;;;;;;11.43;4.55;;;0.10;16.60;;;;;;5086944;28;20078;-63
2022/01/21 05:08:01;;;;;;;12.00;3.92;;;0.10;16.50;;;;;;5086899;28;20093;-64
2022/01/21 05:10:36;;;;;;;11.35;3.92;;;0.10;16.70;;;;;;5083407;28;20052;-64
2022/01/21 05:13:05;;;;;;;10.45;4.03;;;0.10;16.50;;;;;;5088312;28;20084;-63
2022/01/21 05:15:47;;;;;;;12.38;4.38;;;0.20;16.50;;;;;;5084423;28;20074;-63
2022/01/21 05:18:15;;;;;;;10.57;4.57;;;0.20;16.50;;;;;;5088156;28;20067;-64
2022/01/21 05:20:43;;;;;;;9.75;4.18;;;0.20;16.50;;;;;;5083946;28;20522;-63
2022/01/21 05:23:11;;;;;;;14.68;4.35;;;0.30;16.60;;;;;;5088961;28;20079;-63
2022/01/21 05:25:40;;;;;;;15.70;4.82;;;0.20;16.30;;;;;;5087025;28;20098;-63
2022/01/21 05:28:08;;;;;;;9.80;4.00;;;0.20;16.40;;;;;;5087140;28;20083;-63
2022/01/21 05:30:36;;;;;;;6.90;4.32;;;0.30;16.40;;;;;;5083946;28;20126;-64
2022/01/21 05:33:04;;;;;;;11.55;4.68;;;0.20;16.10;;;;;;5070028;28;20778;-63
2022/01/21 05:35:32;;;;;;;12.15;3.90;;;0.30;16.20;;;;;;5086518;28;20583;-64
2022/01/21 05:38:00;;;;;;;13.20;3.92;;;0.30;15.80;;;;;;5086912;28;20090;-64
2022/01/21 05:40:29;;;;;;;9.38;4.07;;;0.30;15.90;;;;;;5085027;28;20498;-65
2022/01/21 05:42:59;;;;;;;11.10;4.35;;;0.30;15.90;;;;;;5087302;28;20491;-64
2022/01/21 05:48:12;;;;;;;12.93;4.70;;;0.40;15.40;;;;;;5086671;28;20047;-64
2022/01/21 05:50:40;;;;;;;10.45;4.45;;;0.40;15.80;;;;;;5083820;28;20102;-64
2022/01/21 05:53:10;;;;;;;12.07;4.35;;;0.40;16.00;;;;;;5087636;28;20524;-64
2022/01/21 05:55:41;;;;;;;14.65;4.55;;;0.40;16.10;;;;;;5086211;28;20044;-64
2022/01/21 05:58:13;;;;;;;11.93;4.70;;;0.40;16.00;;;;;;5048293;28;20121;-64
2022/01/21 06:00:43;;;;;;;12.40;3.88;;;0.40;16.60;;;;;;5083155;28;20044;-64
2022/01/21 06:03:12;;;;;;;14.02;4.10;;;0.30;15.50;;;;;;5086996;28;20058;-64
2022/01/21 06:05:40;;;;;;;13.35;4.78;;;0.30;16.00;;;;;;5087417;28;20413;-64
2022/01/21 06:08:08;;;;;;;13.32;4.65;;;0.40;16.00;;;;;;5087181;28;20526;-63
2022/01/21 06:10:36;;;;;;;10.23;4.10;;;0.40;15.70;;;;;;5084255;28;20056;-64
2022/01/21 06:13:04;;;;;;;11.70;4.40;;;0.30;15.80;;;;;;5087202;28;20032;-64
2022/01/21 06:15:34;;;;;;;8.98;4.18;;;0.30;16.60;;;;;;5087210;28;20064;-64
2022/01/21 06:18:02;;;;;;;13.27;5.00;;;0.30;16.60;;;;;;5085599;28;20143;-64
2022/01/21 06:20:31;;;;;;;8.20;4.05;;;0.30;16.20;;;;;;5082509;28;20044;-65
2022/01/21 06:22:58;;;;;;;14.10;4.70;;;0.30;16.00;;;;;;5087287;28;20479;-64
2022/01/21 06:25:27;;;;;;;10.85;4.63;;;0.30;16.40;;;;;;5086889;28;20081;-64
2022/01/21 06:27:54;;;;;;;9.95;4.22;;;0.30;16.20;;;;;;5086363;28;20052;-65
2022/01/21 06:30:22;;;;;;;11.18;4.60;;;0.30;16.90;;;;;;5080666;28;21766;-64
2022/01/21 06:32:52;;;;;;;12.18;4.90;;;0.30;16.60;;;;;;5085606;28;20048;-65
2022/01/21 06:35:20;;;;;;;16.67;4.63;;;0.30;16.40;;;;;;5085034;28;20504;-63
2022/01/21 06:37:48;;;;;;;13.27;4.35;;;0.30;16.30;;;;;;5086743;28;20571;-63
2022/01/21 06:40:19;;;;;;;13.35;4.30;;;0.30;16.60;;;;;;5083557;28;20052;-63
2022/01/21 06:42:47;;;;;;;9.82;4.00;;;0.30;16.60;;;;;;5086554;28;20044;-64
2022/01/21 06:45:16;;;;;;;11.98;5.43;;;0.30;16.60;;;;;;5086151;28;20542;-64
2022/01/21 06:47:44;;;;;;;15.95;5.03;;;0.30;16.60;;;;;;5086674;28;20578;-64
2022/01/21 06:50:13;;;;;;;14.85;5.30;;;0.30;16.60;;;;;;5081467;28;20123;-64
2022/01/21 06:52:41;;;;;;;11.73;4.80;;;0.40;16.00;;;;;;5086069;28;20043;-64
2022/01/21 06:55:10;;;;;;;16.52;5.60;;;0.30;15.70;;;;;;5086786;28;20052;-64
2022/01/21 06:57:39;;;;;;;12.88;5.00;;;0.30;16.40;;;;;;5085742;28;20056;-64
2022/01/21 07:00:09;;;;;;;9.18;5.25;;;0.40;15.80;;;;;;5086975;28;20044;-64
2022/01/21 07:02:38;;;;;;;16.23;5.50;;;0.40;16.40;;;;;;5089454;28;20665;-64
2022/01/21 07:05:07;;;;;;;17.55;5.45;;;0.40;15.90;;;;;;5089355;28;20119;-66
2022/01/21 07:07:36;;;;;;;12.43;4.72;;;0.50;16.40;;;;;;5089779;28;20503;-65
2022/01/21 07:10:06;;;;;;;12.57;5.57;;;0.50;16.10;;;;;;5086261;28;20075;-66
2022/01/21 07:12:35;;;;;;;17.80;5.15;;;0.50;15.70;;;;;;5089733;28;20430;-64
2022/01/21 07:15:03;;;;;;;12.65;5.03;;;0.50;15.80;;;;;;5089776;28;20056;-66
2022/01/21 07:17:31;;;;;;;18.85;6.05;;;0.50;15.70;;;;;;5090493;28;20495;-63
2022/01/21 07:19:59;;;;;;;13.57;4.82;;;0.50;15.90;;;;;;5086860;28;20040;-63
2022/01/21 07:22:27;;;;;;;12.20;5.63;;;0.50;15.70;;;;;;5087884;28;20067;-63
2022/01/21 07:24:57;;;;;;;10.15;4.97;;;0.60;15.70;;;;;;5090587;28;20040;-63
2022/01/21 07:27:25;;;;;;;15.20;5.07;;;0.60;16.00;;;;;;5089922;28;20055;-63
2022/01/21 07:29:53;;;;;;;17.42;6.28;;;0.60;15.80;;;;;;5086117;28;20135;-64
2022/01/21 07:32:21;;;;;;;10.85;5.93;;;0.70;15.70;;;;;;5087411;28;20075;-64
2022/01/21 07:34:52;;;;;;;12.68;6.15;;;0.70;15.50;;;;;;5089995;28;20032;-65
2022/01/21 07:37:20;;;;;;;13.23;5.68;;;0.70;15.20;;;;;;5090965;28;20048;-63
2022/01/21 07:39:48;;;;;;;13.57;5.45;;;0.70;14.60;;;;;;5086839;28;20054;-64
2022/01/21 07:42:18;;;;;;;15.63;5.97;;;0.70;14.70;;;;;;5087333;28;20058;-63
2022/01/21 07:44:47;;;;;;;13.05;5.85;;;0.70;14.10;;;;;;5089365;28;20050;-63
2022/01/21 07:47:15;;;;;;;14.02;5.13;;;0.60;14.00;;;;;;5084934;28;20062;-63
2022/01/21 07:49:43;;;;;;;13.13;6.32;;;0.60;14.40;;;;;;5086832;28;20058;-64
2022/01/21 07:52:13;;;;;;;11.95;5.43;;;0.70;14.40;;;;;;5087212;28;20040;-63
2022/01/21 07:54:40;;;;;;;16.20;5.68;;;0.70;13.40;;;;;;5090073;28;20048;-64
2022/01/21 07:57:10;;;;;;;16.40;6.72;;;0.70;13.90;;;;;;5089132;28;20063;-64
2022/01/21 07:59:39;;;;;;;11.52;5.05;;;0.70;13.90;;;;;;5086650;28;20075;-64
2022/01/21 08:02:07;;;;;;;13.38;6.20;;;0.70;13.40;;;;;;5087831;28;20522;-64
2022/01/21 08:04:35;;;;;;;15.80;5.38;;;0.70;13.40;;;;;;5087926;28;20063;-64
2022/01/21 08:07:05;;;;;;;14.02;6.30;;;0.70;13.40;;;;;;5089082;28;20047;-64
2022/01/21 08:09:32;;;;;;;10.43;5.43;;;0.70;13.20;;;;;;5086766;28;20130;-64
2022/01/21 08:12:00;;;;;;;14.00;6.63;;;0.70;12.80;;;;;;5087158;28;20044;-63
2022/01/21 08:14:28;;;;;;;12.98;5.80;;;0.80;13.40;;;;;;5087140;28;20456;-64
2022/01/21 08:16:59;;;;;;;14.50;5.65;;;0.80;13.40;;;;;;5090355;28;20044;-64
2022/01/21 08:19:27;;;;;;;11.75;5.72;;;0.80;13.40;;;;;;5088131;28;20048;-64
2022/01/21 08:21:55;;;;;;;12.73;5.18;;;0.80;11.70;;;;;;5086609;28;20125;-64
2022/01/21 08:24:27;;;;;;;16.17;5.80;;;0.90;12.40;;;;;;5086907;28;20577;-63
2022/01/21 08:26:55;;;;;;;12.32;5.47;;;0.80;12.00;;;;;;5087702;28;20575;-63
2022/01/21 08:29:23;;;;;;;13.77;5.85;;;0.80;12.30;;;;;;5086285;28;20098;-64
2022/01/21 08:31:51;;;;;;;20.75;6.22;;;0.90;12.90;;;;;;5086682;28;20125;-64
2022/01/21 08:34:20;;;;;;;16.17;5.93;;;0.80;12.50;;;;;;5088877;28;20124;-64
2022/01/21 08:36:49;;;;;;;12.45;5.85;;;0.90;12.80;;;;;;5089418;28;20044;-64
2022/01/21 08:39:17;;;;;;;11.15;5.70;;;0.90;13.50;;;;;;5068524;28;20040;-62
2022/01/21 08:41:45;;;;;;;12.10;5.80;;;0.90;12.30;;;;;;5085649;28;20510;-64
2022/01/21 08:44:13;;;;;;;18.75;6.13;;;0.80;12.50;;;;;;5088892;28;20062;-64
2022/01/21 08:46:41;;;;;;;19.27;6.03;;;0.90;12.00;;;;;;5087132;28;20060;-64
2022/01/21 08:49:30;;;;;;;12.35;5.78;;;1.00;12.70;;;;;;5085016;28;20052;-64
2022/01/21 08:51:59;;;;;;;22.35;5.90;;;1.10;11.70;;;;;;5086667;28;20079;-63
2022/01/21 08:54:28;;;;;;;13.13;6.53;;;1.10;11.40;;;;;;5087803;28;20068;-64
2022/01/21 08:56:57;;;;;;;15.43;6.13;;;1.20;11.60;;;;;;5087246;28;20075;-65
2022/01/21 08:59:26;;;;;;;14.02;5.97;;;1.30;10.50;;;;;;5085827;28;20047;-63
2022/01/21 09:01:55;;;;;;;17.15;6.53;;;1.10;10.10;;;;;;5087648;28;20051;-64
2022/01/21 09:04:24;;;;;;;13.75;5.80;;;1.20;10.20;;;;;;5086991;28;20052;-64
2022/01/21 09:06:53;;;;;;;20.40;6.75;;;1.20;9.70;;;;;;5087837;28;20115;-63
2022/01/21 09:09:21;;;;;;;12.77;5.65;;;1.30;10.40;;;;;;5081634;28;20044;-63
2022/01/21 09:11:50;;;;;;;10.68;5.40;;;1.30;9.50;;;;;;5085656;28;20852;-64
2022/01/21 09:14:18;;;;;;;16.52;5.78;;;1.20;9.10;;;;;;5088973;28;20048;-65
2022/01/21 09:16:46;;;;;;;10.20;5.88;;;1.30;9.30;;;;;;5087862;28;20055;-64
2022/01/21 09:19:14;;;;;;;14.02;4.95;;;1.40;9.20;;;;;;5087037;28;20044;-64
2022/01/21 09:21:44;;;;;;;12.23;5.43;;;1.50;9.80;;;;;;5086293;28;20064;-63
2022/01/21 09:24:13;;;;;;;12.73;5.13;;;1.40;8.20;;;;;;5086627;28;20062;-64
2022/01/21 09:26:43;;;;;;;13.13;5.13;;;1.40;8.30;;;;;;5086717;28;20530;-64
2022/01/21 09:29:11;;;;;;;11.90;5.10;;;1.30;7.70;;;;;;5085542;28;20071;-65
2022/01/21 09:31:40;;;;;;;9.75;4.72;;;1.50;8.90;;;;;;5085866;28;20604;-64
2022/01/21 09:34:24;;;;;;;13.00;5.75;;;1.40;8.10;;;;;;5084463;28;20044;-64
2022/01/21 09:36:53;;;;;;;12.45;5.43;;;1.40;8.90;;;;;;5087056;28;20059;-65
2022/01/21 09:39:23;;;;;;;13.05;5.78;;;1.50;8.60;;;;;;5085287;28;20047;-65
2022/01/21 09:41:53;;;;;;;18.10;6.00;;;1.60;6.80;;;;;;5086668;28;20044;-64
2022/01/21 09:44:22;;;;;;;13.55;5.88;;;1.60;7.30;;;;;;5086973;28;20040;-64
2022/01/21 09:46:53;;;;;;;12.73;5.22;;;1.80;7.30;;;;;;5086614;28;20035;-65
2022/01/21 09:49:26;;;;;;;12.98;6.00;;;1.90;6.90;;;;;;5084856;28;20051;-63
2022/01/21 09:51:57;;;;;;;14.32;6.18;;;1.80;6.90;;;;;;5084739;28;20502;-64
2022/01/21 09:54:29;;;;;;;17.77;5.25;;;1.70;5.70;;;;;;5086101;28;20070;-63
2022/01/21 09:56:58;;;;;;;12.00;5.68;;;1.60;5.70;;;;;;5087623;28;20044;-64
2022/01/21 09:59:29;;;;;;;12.27;5.82;;;1.60;6.50;;;;;;5084629;28;20087;-63
2022/01/21 10:01:58;;;;;;;12.07;4.75;;;1.80;7.00;;;;;;5085567;28;20075;-65
2022/01/21 10:04:28;;;;;;;9.98;4.65;;;1.60;6.80;;;;;;5085597;28;20071;-64
2022/01/21 10:06:57;;;;;;;11.70;5.20;;;1.70;6.00;;;;;;5085975;28;20056;-64
2022/01/21 10:09:27;;;;;;;10.30;5.28;;;1.60;6.10;;;;;;5082722;28;20052;-64
2022/01/21 10:11:58;;;;;;;10.93;4.40;;;1.60;6.40;;;;;;5085032;28;20048;-64
2022/01/21 10:14:27;;;;;;;12.25;4.80;;;1.50;6.60;;;;;;5085682;28;20086;-64
2022/01/21 10:16:56;;;;;;;14.02;5.63;;;1.60;6.50;;;;;;5087589;28;20048;-64
2022/01/21 10:19:27;;;;;;;10.68;4.53;;;1.50;6.80;;;;;;5084787;28;20522;-63
2022/01/21 10:22:00;;;;;;;17.05;6.10;;;1.50;6.30;;;;;;5084730;28;20102;-63
2022/01/21 10:24:31;;;;;;;13.30;5.45;;;1.60;6.80;;;;;;5084976;28;20460;-64
2022/01/21 10:27:00;;;;;;;10.32;5.00;;;1.70;6.80;;;;;;5086832;28;20591;-64
2022/01/21 10:29:36;;;;;;;13.20;5.60;;;1.60;6.00;;;;;;5080366;28;20192;-64
2022/01/21 10:32:06;;;;;;;9.73;5.32;;;1.60;6.80;;;;;;5085198;28;20048;-66
2022/01/21 10:34:38;;;;;;;11.50;5.28;;;1.80;7.00;;;;;;5085937;28;20055;-64
2022/01/21 10:37:22;;;;;;;11.82;5.20;;;1.60;6.40;;;;;;5085420;28;20072;-64
2022/01/21 10:40:04;;;;;;;12.57;5.43;;;1.70;6.90;;;;;;5083706;28;20063;-66
2022/01/21 10:42:32;;;;;;;13.13;5.10;;;1.90;5.90;;;;;;5083780;28;20123;-64
2022/01/21 10:45:01;;;;;;;9.55;4.85;;;2.00;5.80;;;;;;5084890;28;20072;-65
2022/01/21 10:47:31;;;;;;;14.88;6.05;;;2.10;5.90;;;;;;5085691;28;20538;-64
2022/01/21 10:50:02;;;;;;;23.15;5.15;;;1.80;4.70;;;;;;5067251;28;20044;-65
2022/01/21 10:52:36;;;;;;;10.73;5.10;;;2.00;5.40;;;;;;5066051;28;20078;-64
2022/01/21 10:55:27;;;;;;;10.77;5.18;;;2.10;3.90;;;;;;5083713;28;20082;-63
2022/01/21 10:58:09;;;;;;;12.88;5.50;;;1.90;4.20;;;;;;5086087;28;20044;-65
2022/01/21 11:00:37;;;;;;;10.52;4.78;;;2.10;3.20;;;;;;5082217;28;20561;-64
2022/01/21 11:03:10;;;;;;;12.18;5.32;;;2.30;3.60;;;;;;5086748;28;20047;-64
2022/01/21 11:05:42;;;;;;;15.10;4.95;;;2.40;2.00;;;;;;5085895;28;20047;-64
2022/01/21 11:08:11;;;;;;;12.30;3.80;;;2.50;2.10;;;;;;5087188;28;20050;-65
2022/01/21 11:10:47;;;;;;;10.27;3.92;;;2.40;2.60;;;;;;5082328;28;20127;-65
2022/01/21 11:13:33;;;;;;;10.93;4.22;;;2.60;1.80;;;;;;5084692;28;20583;-64
2022/01/21 11:16:08;;;;;;;7.88;3.17;;;2.50;1.60;;;;;;5085740;28;20146;-64
2022/01/21 11:19:06;;;;;;;8.05;4.28;;;2.30;1.00;;;;;;5063994;28;20388;-64
2022/01/21 11:21:46;;;;;;;10.95;4.47;;;2.20;1.90;;;;;;5082698;28;20117;-64
2022/01/21 11:24:17;;;;;;;11.15;4.25;;;2.40;2.10;;;;;;5081950;28;20539;-65
2022/01/21 11:27:06;;;;;;;8.85;3.60;;;2.30;1.40;;;;;;5084701;28;20446;-64
2022/01/21 11:29:34;;;;;;;12.73;4.63;;;2.10;1.00;;;;;;5078938;28;20078;-63
2022/01/21 11:32:03;;;;;;;13.98;4.78;;;2.20;1.40;;;;;;5083111;28;20044;-64
2022/01/21 11:34:32;;;;;;;14.27;4.45;;;2.50;2.30;;;;;;5083587;28;20135;-64
2022/01/21 11:37:00;;;;;;;18.27;4.32;;;2.60;1.60;;;;;;5080365;28;20047;-64
2022/01/21 11:39:31;;;;;;;10.68;4.13;;;2.50;1.00;;;;;;5083050;28;20230;-64
2022/01/21 11:42:03;;;;;;;8.80;4.40;;;2.30;1.30;;;;;;5084103;28;20072;-64
2022/01/21 11:44:33;;;;;;;9.88;3.72;;;2.30;1.00;;;;;;5086398;28;20124;-64
2022/01/21 11:47:14;;;;;;;11.63;4.57;;;2.30;1.10;;;;;;5088686;28;20036;-64
2022/01/21 11:49:53;;;;;;;12.43;3.80;;;2.40;2.40;;;;;;5085264;28;20103;-64
2022/01/21 11:52:22;;;;;;;11.60;4.95;;;2.30;1.50;;;;;;5086372;28;20503;-64
2022/01/21 11:54:50;;;;;;;10.15;4.20;;;2.50;2.10;;;;;;5087041;28;20063;-64
2022/01/21 11:57:30;;;;;;;14.68;4.05;;;2.50;1.40;;;;;;5088599;28;20131;-64
2022/01/21 12:00:06;;;;;;;9.43;3.83;;;2.50;1.10;;;;;;5082057;28;20040;-64
2022/01/21 12:02:36;;;;;;;10.82;4.03;;;2.50;1.50;;;;;;5084569;28;20064;-64
2022/01/21 12:05:07;;;;;;;14.65;4.57;;;2.50;2.20;;;;;;5086356;28;20093;-64
2022/01/21 12:07:48;;;;;;;8.43;3.70;;;2.60;1.60;;;;;;5088118;28;20056;-64
2022/01/21 12:10:29;;;;;;;15.80;4.47;;;2.50;1.90;;;;;;5082970;28;20447;-64
2022/01/21 12:13:13;;;;;;;13.88;4.00;;;2.60;1.80;;;;;;5079663;28;20131;-65
2022/01/21 12:19:19;;;;;;;13.02;4.28;;;2.60;1.30;;;;;;5087122;28;20048;-65
2022/01/21 12:21:49;;;;;;;20.38;4.53;;;2.30;1.80;;;;;;5087114;28;20542;-64
2022/01/21 12:24:50;;;;;;;15.63;3.75;;;2.70;2.00;;;;;;5085698;28;20056;-64
2022/01/21 12:27:19;;;;;;;11.35;3.67;;;2.70;1.20;;;;;;5083083;28;20048;-64
2022/01/21 12:29:48;;;;;;;16.23;4.72;;;2.70;1.00;;;;;;5082632;28;20050;-64
2022/01/21 12:32:23;;;;;;;10.52;3.28;;;2.70;1.00;;;;;;5075819;28;20047;-65
2022/01/21 12:35:20;;;;;;;8.27;3.00;;;2.50;1.10;;;;;;5083696;28;20125;-64
2022/01/21 12:41:37;;;;;;;12.07;3.92;;;2.80;1.00;;;;;;5084695;28;20066;-63
2022/01/21 12:44:06;;;;;;;9.45;3.88;;;2.90;1.00;;;;;;5086908;28;20072;-64
2022/01/21 12:46:39;;;;;;;10.98;3.90;;;2.90;1.00;;;;;;5085811;28;20126;-64
2022/01/21 12:49:36;;;;;;;11.88;3.50;;;2.70;1.00;;;;;;5086780;28;20131;-64
2022/01/21 12:52:24;;;;;;;8.52;2.90;;;2.80;1.00;;;;;;5085350;28;20697;-64
2022/01/21 12:57:42;;;;;;;11.77;3.40;;;2.70;1.00;;;;;;5087935;28;20131;-64
2022/01/21 13:00:11;;;;;;;10.95;4.03;;;2.80;1.30;;;;;;5085062;28;20139;-64
2022/01/21 13:02:41;;;;;;;8.85;3.25;;;2.70;1.00;;;;;;5085902;28;20048;-64
2022/01/21 13:05:16;;;;;;;5.57;2.63;;;2.70;1.00;;;;;;5085057;28;20701;-63
2022/01/21 13:07:52;;;;;;;10.32;3.05;;;2.60;1.40;;;;;;5087471;28;20047;-63
2022/01/21 13:10:26;;;;;;;10.35;2.70;;;2.70;1.20;;;;;;5080795;28;20055;-64
2022/01/21 13:13:14;;;;;;;12.10;3.22;;;2.60;1.30;;;;;;5082390;28;20101;-64
2022/01/21 13:15:45;;;;;;;13.68;3.80;;;2.80;1.00;;;;;;5082809;28;20130;-64
2022/01/21 13:18:18;;;;;;;8.98;2.90;;;2.80;1.10;;;;;;5084438;28;20052;-63
2022/01/21 13:20:48;;;;;;;7.88;3.53;;;2.80;1.00;;;;;;5082046;28;20050;-64
2022/01/21 13:23:35;;;;;;;15.32;3.90;;;3.10;1.00;;;;;;5080919;28;20131;-64
2022/01/21 13:26:12;;;;;;;10.38;3.47;;;3.00;1.00;;;;;;5079460;28;20548;-64
2022/01/21 13:28:57;;;;;;;15.48;3.15;;;2.90;1.00;;;;;;5081445;28;20457;-65
2022/01/21 13:31:26;;;;;;;13.02;4.05;;;2.90;1.20;;;;;;5081549;28;20052;-64
2022/01/21 13:34:07;;;;;;;9.70;2.90;;;2.90;1.30;;;;;;5083459;28;20133;-65
2022/01/21 13:36:46;;;;;;;10.75;3.42;;;2.80;1.20;;;;;;5064440;28;20117;-64
2022/01/21 13:39:17;;;;;;;11.18;2.80;;;2.90;1.00;;;;;;5080863;28;20131;-65
2022/01/21 13:42:03;;;;;;;11.18;3.30;;;2.80;1.00;;;;;;5081276;28;20066;-65
2022/01/21 13:44:38;;;;;;;14.85;3.40;;;2.90;1.00;;;;;;5082450;28;20048;-65
2022/01/21 13:47:08;;;;;;;17.25;3.95;;;2.90;1.70;;;;;;5083912;28;20046;-65
2022/01/21 13:49:37;;;;;;;16.98;3.30;;;3.10;1.40;;;;;;5081089;28;20052;-64
2022/01/21 13:52:07;;;;;;;10.75;3.35;;;3.00;1.10;;;;;;5078525;28;20068;-65
2022/01/21 13:54:37;;;;;;;11.00;3.50;;;3.10;1.10;;;;;;5082417;28;20114;-64
2022/01/21 13:57:07;;;;;;;13.77;2.95;;;3.10;1.10;;;;;;5062653;28;20131;-65
2022/01/21 13:59:41;;;;;;;14.98;4.57;;;3.10;1.00;;;;;;5064210;28;20102;-65